P/v Golden Gate — WDE5665 — position and weather

sailwx.info

Track history (hours):
 
Tides and Currents Weather Stations Pressure Air Temp Water Temp Dewpoint Dewpoint Depression Visibility Wind Speed Wind Dir Waves Ship Positions

P/v Golden Gate

Owner: San Francisco Bar Pilots Benevolent and Protective, San Francisco, CA. More information available from US FCC via Universal Licensing System and Coast Guard Vessel Documentation Center.

Last reported at 2017-Apr-25 13:31 UTC. Time now 2017-Apr-25 14:32 UTC.
Position N 37°48' W 122°24'.

Length 23 m; draft 2 m.

Type: Pilot. MMSI: 367370010.

Date/timePositionNaut miles runAvg speedWind from/ knotsBaromVisibWave heightAir tempDewpointWater temp
2017-Apr-25 13:31N 37°48' W 122°24'0 0.0
2017-Apr-25 13:00N 37°48' W 122°24'0 0.0
2017-Apr-25 12:30N 37°48' W 122°24'3 5.6
2017-Apr-25 12:00N 37°49' W 122°27'510.8
2017-Apr-25 11:30N 37°48' W 122°20'510.1
2017-Apr-25 11:00N 37°49' W 122°27'510.3
2017-Apr-25 10:31N 37°48' W 122°20'3 5.5
2017-Apr-25 10:00N 37°48' W 122°24'0 0.0
2017-Apr-25 09:30N 37°48' W 122°24'0 0.0
2017-Apr-25 09:00N 37°48' W 122°24'0 0.2
2017-Apr-25 08:30N 37°48' W 122°24'3 6.8
2017-Apr-25 08:01N 37°48' W 122°19'3 6.9
2017-Apr-25 07:31N 37°48' W 122°24'2 3.4
2017-Apr-25 07:00N 37°47' W 122°22'2 3.4
2017-Apr-25 06:30N 37°48' W 122°24'0 0.0
2017-Apr-25 06:00N 37°48' W 122°24'0 0.0
2017-Apr-25 05:30N 37°48' W 122°24'0 0.0
2017-Apr-25 05:00N 37°48' W 122°24'611.0
2017-Apr-25 04:30N 37°44' W 122°20'611.0
2017-Apr-25 04:00N 37°48' W 122°24'0 0.0
2017-Apr-25 03:30N 37°48' W 122°24'0 0.0
2017-Apr-25 03:00N 37°48' W 122°24'0 0.0
2017-Apr-25 02:30N 37°48' W 122°24'1 2.1
2017-Apr-25 02:00N 37°47' W 122°23'1 2.1
2017-Apr-25 01:30N 37°48' W 122°24'0 0.0
2017-Apr-25 01:01N 37°48' W 122°24'0 0.0
2017-Apr-25 00:30N 37°48' W 122°24'0 0.0
2017-Apr-25 00:01N 37°48' W 122°24'0 0.0
2017-Apr-24 23:30N 37°48' W 122°24'0 0.0
2017-Apr-24 23:01N 37°48' W 122°24'0 0.0
2017-Apr-24 22:30N 37°48' W 122°24'0 0.0
2017-Apr-24 22:01N 37°48' W 122°24'0 0.0
2017-Apr-24 21:30N 37°48' W 122°24'0 0.0
2017-Apr-24 21:00N 37°48' W 122°24'0 0.0
2017-Apr-24 20:29N 37°48' W 122°24'0 0.0
2017-Apr-24 19:59N 37°48' W 122°24'0 0.0
2017-Apr-24 19:30N 37°48' W 122°24'0 0.0
2017-Apr-24 19:00N 37°48' W 122°24'4 7.4
2017-Apr-24 18:30N 37°49' W 122°28'815.6
2017-Apr-24 17:59N 37°46' W 122°38'612.1
2017-Apr-24 17:30N 37°48' W 122°31'5 4.6
2017-Apr-24 16:30N 37°49' W 122°25'611.1
2017-Apr-24 16:01N 37°44' W 122°21'4 8.6
2017-Apr-24 15:30N 37°48' W 122°23'5 9.8
2017-Apr-24 15:00N 37°44' W 122°20'4 7.6
2017-Apr-24 14:30N 37°48' W 122°20'5 5.1
2017-Apr-24 13:30N 37°49' W 122°26'612.0
2017-Apr-24 13:00N 37°45' W 122°20'4 8.4
2017-Apr-24 12:30N 37°48' W 122°24'0 0.0
2017-Apr-24 12:00N 37°48' W 122°24'0 0.0
2017-Apr-24 11:30N 37°48' W 122°24'0 0.0
2017-Apr-24 11:00N 37°48' W 122°24'4 8.4
2017-Apr-24 10:30N 37°44' W 122°21'1 2.7
2017-Apr-24 10:01N 37°46' W 122°21'3 5.4
2017-Apr-24 09:30N 37°48' W 122°23'2 4.2
2017-Apr-24 09:00N 37°46' W 122°21'3 5.1
2017-Apr-24 08:30N 37°48' W 122°24'0 0.0
2017-Apr-24 08:01N 37°48' W 122°24'0 0.0
2017-Apr-24 07:30N 37°48' W 122°24'0 0.0
2017-Apr-24 07:00N 37°48' W 122°24'0 0.0
2017-Apr-24 06:30N 37°48' W 122°24'0 0.0
2017-Apr-24 06:00N 37°48' W 122°24'0 0.0
2017-Apr-24 05:30N 37°48' W 122°24'0 0.0
2017-Apr-24 05:00N 37°48' W 122°24'0 0.0
2017-Apr-24 04:30N 37°48' W 122°24'0 0.0
2017-Apr-24 04:00N 37°48' W 122°24'0 0.0
2017-Apr-24 03:30N 37°48' W 122°24'0 0.0
2017-Apr-24 03:00N 37°48' W 122°24'0 0.0
2017-Apr-24 02:29N 37°48' W 122°24'2 3.8
2017-Apr-24 02:01N 37°48' W 122°21'2 3.6
2017-Apr-24 01:30N 37°48' W 122°24'0 0.0
2017-Apr-24 01:00N 37°48' W 122°24'0 0.0
2017-Apr-24 00:31N 37°48' W 122°24'5 9.7
2017-Apr-24 00:00N 37°44' W 122°20'4 8.9
2017-Apr-23 23:30N 37°48' W 122°22'4 7.4
2017-Apr-23 23:01N 37°45' W 122°20'4 8.4
2017-Apr-23 22:30N 37°48' W 122°24'0 0.0
2017-Apr-23 22:00N 37°48' W 122°24'0 0.0
2017-Apr-23 21:30N 37°48' W 122°24'0 0.0
2017-Apr-23 21:00N 37°48' W 122°24'0 0.0
2017-Apr-23 20:31N 37°48' W 122°24'0 0.0
2017-Apr-23 20:00N 37°48' W 122°24'0 0.0
2017-Apr-23 19:30N 37°48' W 122°24'0 0.0
2017-Apr-23 19:00N 37°48' W 122°24'0 0.0
2017-Apr-23 18:30N 37°48' W 122°24'0 0.0
2017-Apr-23 18:00N 37°48' W 122°24'0 0.0
2017-Apr-23 17:29N 37°48' W 122°24'3 6.8
2017-Apr-23 17:00N 37°46' W 122°20'3 6.5
2017-Apr-23 16:30N 37°48' W 122°24'0 0.0
2017-Apr-23 16:00N 37°48' W 122°24'0 0.0
2017-Apr-23 15:30N 37°48' W 122°24'0 0.0
2017-Apr-23 15:00N 37°48' W 122°24'4 3.6
2017-Apr-23 14:01N 37°48' W 122°19'510.4
2017-Apr-23 13:30N 37°50' W 122°25'2 4.3
2017-Apr-23 12:59N 37°48' W 122°24'4 8.7
2017-Apr-23 12:31N 37°45' W 122°20'4 8.3
2017-Apr-23 12:00N 37°48' W 122°24'0 0.0
2017-Apr-23 11:30N 37°48' W 122°24'4 8.9
2017-Apr-23 11:00N 37°49' W 122°29'914.6
2017-Apr-23 10:24N 37°45' W 122°40'510.4
2017-Apr-23 09:55N 37°47' W 122°33'820.8
2017-Apr-23 09:31N 37°49' W 122°23'1 1.6
2017-Apr-23 09:01N 37°48' W 122°24'0 0.0
2017-Apr-23 08:30N 37°48' W 122°24'0 0.0
2017-Apr-23 08:00N 37°48' W 122°24'0 0.0
2017-Apr-23 07:30N 37°48' W 122°24'0 0.0
2017-Apr-23 07:01N 37°48' W 122°24'4 8.6
2017-Apr-23 06:30N 37°49' W 122°29'4 8.5
2017-Apr-23 06:00N 37°48' W 122°24'0 0.0
2017-Apr-23 05:30N 37°48' W 122°24'2 3.6
2017-Apr-23 05:00N 37°47' W 122°22'4 7.2
2017-Apr-23 04:30N 37°49' W 122°26'611.1
2017-Apr-23 04:01N 37°45' W 122°21'4 7.5
2017-Apr-23 03:30N 37°48' W 122°24'0 0.0
2017-Apr-23 03:00N 37°48' W 122°24'0 0.0
2017-Apr-23 02:30N 37°48' W 122°24'0 0.0
2017-Apr-23 02:00N 37°48' W 122°24'0 0.0
2017-Apr-23 01:30N 37°48' W 122°24'0 0.0
2017-Apr-23 01:00N 37°48' W 122°24'3 5.1
2017-Apr-23 00:30N 37°48' W 122°21'3 5.2
2017-Apr-23 00:00N 37°48' W 122°24'0 0.0
2017-Apr-22 23:30N 37°48' W 122°24'0 0.0
2017-Apr-22 23:00N 37°48' W 122°24'0 0.0
2017-Apr-22 22:30N 37°48' W 122°24'0 0.0
2017-Apr-22 22:00N 37°48' W 122°24'0 1.0
2017-Apr-22 21:30N 37°48' W 122°23'3 6.9
2017-Apr-22 21:01N 37°49' W 122°27'6 9.9
2017-Apr-22 20:26N 37°47' W 122°34'819.4
2017-Apr-22 20:00N 37°48' W 122°24'0 0.0
2017-Apr-22 19:30N 37°48' W 122°24'0 0.0
2017-Apr-22 19:01N 37°48' W 122°24'0 0.0
2017-Apr-22 18:31N 37°48' W 122°24'0 0.0
2017-Apr-22 18:01N 37°48' W 122°24'0 0.0
2017-Apr-22 17:31N 37°48' W 122°24'0 0.0
2017-Apr-22 17:00N 37°48' W 122°24'0 0.0
2017-Apr-22 16:31N 37°48' W 122°24'1 2.4
2017-Apr-22 16:00N 37°49' W 122°25'2 4.5
2017-Apr-22 15:30N 37°48' W 122°22'4 8.8
2017-Apr-22 15:00N 37°50' W 122°27'4 7.0
2017-Apr-22 14:30N 37°48' W 122°24'3 2.9
2017-Apr-22 13:30N 37°49' W 122°20'3 5.6
2017-Apr-22 13:00N 37°48' W 122°24'0 0.0
2017-Apr-22 12:31N 37°48' W 122°24'2 3.4
2017-Apr-22 12:00N 37°48' W 122°22'5 9.5
2017-Apr-22 11:31N 37°49' W 122°27'2 3.5
2017-Apr-22 11:01N 37°49' W 122°25'1 2.9
2017-Apr-22 10:30N 37°48' W 122°24'0 0.0
2017-Apr-22 10:00N 37°48' W 122°24'1 2.5
2017-Apr-22 09:31N 37°47' W 122°22'1 2.5
2017-Apr-22 09:00N 37°48' W 122°24'0 0.0
2017-Apr-22 08:30N 37°48' W 122°24'0 0.0
2017-Apr-22 08:00N 37°48' W 122°24'0 0.0
2017-Apr-22 07:30N 37°48' W 122°24'0 0.0
2017-Apr-22 07:00N 37°48' W 122°24'0 0.5
2017-Apr-22 06:31N 37°48' W 122°24'0 0.3
2017-Apr-22 06:00N 37°48' W 122°23'0 0.6
2017-Apr-22 05:30N 37°48' W 122°24'0 0.0
2017-Apr-22 05:00N 37°48' W 122°24'0 0.0
2017-Apr-22 04:30N 37°48' W 122°24'3 5.9
2017-Apr-22 04:00N 37°51' W 122°26'3 5.8
2017-Apr-22 03:30N 37°48' W 122°24'0 0.0
2017-Apr-22 03:00N 37°48' W 122°24'0 0.0
2017-Apr-22 02:31N 37°48' W 122°24'0 0.0
2017-Apr-22 02:01N 37°48' W 122°24'1 2.8
2017-Apr-22 01:30N 37°48' W 122°22'1 2.8
2017-Apr-22 01:00N 37°48' W 122°24'0 0.1
2017-Apr-22 00:30N 37°48' W 122°24'2 4.3
2017-Apr-22 00:00N 37°47' W 122°22'2 4.2
2017-Apr-21 23:30N 37°48' W 122°24'0 0.0
2017-Apr-21 23:00N 37°48' W 122°24'0 0.5
2017-Apr-21 22:31N 37°48' W 122°24'3 5.4
2017-Apr-21 22:01N 37°48' W 122°20'3 5.4
2017-Apr-21 21:30N 37°48' W 122°24'0 0.0
2017-Apr-21 21:00N 37°48' W 122°24'0 0.0
2017-Apr-21 20:30N 37°48' W 122°24'0 0.0
2017-Apr-21 20:00N 37°48' W 122°24'0 0.0
2017-Apr-21 19:30N 37°48' W 122°24'0 0.0
2017-Apr-21 19:00N 37°48' W 122°24'3 6.1
2017-Apr-21 18:30N 37°49' W 122°27'3 5.1
2017-Apr-21 17:51N 37°48' W 122°32'720.1
2017-Apr-21 17:31N 37°48' W 122°23'0 0.9
2017-Apr-21 17:00N 37°48' W 122°24'0 0.4
2017-Apr-21 16:30N 37°48' W 122°24'0 0.0
2017-Apr-21 16:00N 37°48' W 122°24'0 0.0
2017-Apr-21 15:30N 37°48' W 122°24'0 0.0
2017-Apr-21 15:00N 37°48' W 122°24'0 0.0
2017-Apr-21 14:30N 37°48' W 122°24'1 2.5
2017-Apr-21 14:01N 37°49' W 122°25'1 2.9
2017-Apr-21 13:30N 37°48' W 122°23'1 1.5
2017-Apr-21 13:00N 37°48' W 122°23'5 9.0
2017-Apr-21 12:31N 37°49' W 122°28'4 8.0
2017-Apr-21 12:00N 37°48' W 122°33'714.4
2017-Apr-21 11:31N 37°48' W 122°24'0 0.0
2017-Apr-21 10:59N 37°48' W 122°24'0 0.0
2017-Apr-21 10:31N 37°48' W 122°24'0 0.0
2017-Apr-21 10:00N 37°48' W 122°24'0 0.0
2017-Apr-21 09:31N 37°48' W 122°24'0 0.0
2017-Apr-21 09:01N 37°48' W 122°24'0 0.0
2017-Apr-21 08:31N 37°48' W 122°24'0 0.0
2017-Apr-21 07:58N 37°48' W 122°24'0 0.0
2017-Apr-21 07:30N 37°48' W 122°24'0 0.0
2017-Apr-21 07:01N 37°48' W 122°24'0 0.0
2017-Apr-21 06:31N 37°48' W 122°24'0 0.0
2017-Apr-21 06:00N 37°48' W 122°24'0 0.0
2017-Apr-21 05:31N 37°48' W 122°24'0 0.0
2017-Apr-21 05:01N 37°48' W 122°24'0 0.0
2017-Apr-21 04:30N 37°48' W 122°24'0 0.0
2017-Apr-21 04:00N 37°48' W 122°24'0 0.0
2017-Apr-21 03:31N 37°48' W 122°24'0 0.4
2017-Apr-21 03:01N 37°48' W 122°24'1121.9
2017-Apr-21 02:30N 37°46' W 122°37'612.4
2017-Apr-21 02:01N 37°49' W 122°30'815.7
2017-Apr-21 01:31N 37°46' W 122°21'4 8.3
2017-Apr-21 01:00N 37°49' W 122°24'611.4
2017-Apr-21 00:30N 37°45' W 122°20'0 0.9
2017-Apr-21 00:01N 37°44' W 122°20'5 9.9
2017-Apr-20 23:30N 37°48' W 122°24'0 0.0
2017-Apr-20 23:00N 37°48' W 122°24'0 0.0
2017-Apr-20 22:30N 37°48' W 122°24'0 0.0
2017-Apr-20 22:00N 37°48' W 122°24'0 0.0
2017-Apr-20 21:30N 37°48' W 122°24'0 0.0
2017-Apr-20 21:00N 37°48' W 122°24'0 0.0
2017-Apr-20 20:30N 37°48' W 122°24'0 0.0
2017-Apr-20 20:00N 37°48' W 122°24'0 0.0
2017-Apr-20 19:30N 37°48' W 122°24'0 0.0
2017-Apr-20 19:00N 37°48' W 122°24'0 0.0
2017-Apr-20 18:30N 37°48' W 122°24'0 0.0
2017-Apr-20 18:00N 37°48' W 122°24'0 0.0
2017-Apr-20 17:30N 37°48' W 122°24'0 0.0
2017-Apr-20 17:00N 37°48' W 122°24'0 0.0
2017-Apr-20 16:30N 37°48' W 122°24'3 6.6
2017-Apr-20 16:00N 37°49' W 122°20'4 8.9
2017-Apr-20 15:31N 37°49' W 122°25'816.3
2017-Apr-20 15:00N 37°47' W 122°35'1019.4
2017-Apr-20 14:31N 37°48' W 122°23'2 2.0
2017-Apr-20 13:30N 37°48' W 122°21'2 3.9
2017-Apr-20 13:00N 37°46' W 122°22'4 7.8
2017-Apr-20 12:30N 37°49' W 122°25'2 3.0
2017-Apr-20 12:00N 37°48' W 122°24'0 0.0
2017-Apr-20 11:30N 37°48' W 122°24'0 0.0
2017-Apr-20 10:58N 37°48' W 122°24'0 0.0
2017-Apr-20 09:59N 37°48' W 122°24'0 0.0
2017-Apr-20 08:45N 37°48' W 122°24'0 0.0
2017-Apr-20 08:27N 37°48' W 122°24'0 0.3
2017-Apr-20 07:56N 37°48' W 122°24'3 5.9
2017-Apr-20 07:30N 37°46' W 122°22'3 5.0
2017-Apr-20 07:00N 37°48' W 122°24'0 0.0
2017-Apr-20 06:30N 37°48' W 122°24'0 0.0
2017-Apr-20 06:00N 37°48' W 122°24'0 0.0
2017-Apr-20 05:30N 37°48' W 122°24'0 0.4
2017-Apr-20 05:00N 37°48' W 122°24'0 0.9
2017-Apr-20 04:31N 37°49' W 122°24'1 1.2
2017-Apr-20 04:00N 37°48' W 122°24'0 0.0
2017-Apr-20 03:30N 37°48' W 122°24'4 7.0
2017-Apr-20 03:01N 37°48' W 122°19'0 0.1
2017-Apr-20 02:31N 37°48' W 122°19'0 0.0
2017-Apr-20 02:00N 37°48' W 122°19'4 7.1
2017-Apr-20 01:30N 37°48' W 122°24'0 0.0
2017-Apr-20 00:15N 37°48' W 122°24'313.4
2017-Apr-20 00:00N 37°49' W 122°20'3 6.4
2017-Apr-19 23:30N 37°48' W 122°24'0 0.0
2017-Apr-19 23:00N 37°48' W 122°24'0 0.0
2017-Apr-19 22:30N 37°48' W 122°24'0 0.0
2017-Apr-19 22:00N 37°48' W 122°24'0 0.0
2017-Apr-19 21:30N 37°48' W 122°24'1 1.4
2017-Apr-19 21:00N 37°48' W 122°23'1 1.3
2017-Apr-19 20:29N 37°48' W 122°24'0 0.0
2017-Apr-19 20:01N 37°48' W 122°24'0 0.0
2017-Apr-19 19:29N 37°48' W 122°24'3 7.1
2017-Apr-19 19:01N 37°49' W 122°20'1 1.5
2017-Apr-19 18:30N 37°48' W 122°19'0 0.4
2017-Apr-19 18:00N 37°48' W 122°20'611.4
2017-Apr-19 17:30N 37°50' W 122°26'2 3.2
2017-Apr-19 17:00N 37°49' W 122°28'2 4.5
2017-Apr-19 16:30N 37°49' W 122°25'0 0.0
2017-Apr-19 15:57N 37°49' W 122°25'2 5.0
2017-Apr-19 15:31N 37°47' W 122°23'0 0.8
2017-Apr-19 15:01N 37°48' W 122°23'3 5.9
2017-Apr-19 14:30N 37°48' W 122°19'2 1.8
2017-Apr-19 13:31N 37°47' W 122°21'2 4.5
2017-Apr-19 13:00N 37°48' W 122°24'0 0.0
2017-Apr-19 12:30N 37°48' W 122°24'0 0.0
2017-Apr-19 12:00N 37°48' W 122°24'0 0.0
2017-Apr-19 11:31N 37°48' W 122°24'0 0.0
2017-Apr-19 11:00N 37°48' W 122°24'0 0.0
2017-Apr-19 10:30N 37°48' W 122°24'0 0.0
2017-Apr-19 10:00N 37°48' W 122°24'1 2.6
2017-Apr-19 09:31N 37°48' W 122°22'4 7.5
2017-Apr-19 09:01N 37°49' W 122°27'4 8.9
2017-Apr-19 08:31N 37°48' W 122°21'3 6.0
2017-Apr-19 08:00N 37°48' W 122°18'4 8.5
2017-Apr-19 07:30N 37°48' W 122°23'3 6.6
2017-Apr-19 07:00N 37°48' W 122°19'0 0.6
2017-Apr-19 06:31N 37°48' W 122°18'1 1.3
2017-Apr-19 06:00N 37°48' W 122°18'1 1.2
2017-Apr-19 05:31N 37°48' W 122°18'4 8.6
2017-Apr-19 05:00N 37°48' W 122°24'0 0.0
2017-Apr-19 04:30N 37°48' W 122°24'3 5.2
2017-Apr-19 04:00N 37°49' W 122°27'3 5.3
2017-Apr-19 03:30N 37°48' W 122°24'4 7.6
2017-Apr-19 03:00N 37°48' W 122°19'4 7.2
2017-Apr-19 02:30N 37°48' W 122°23'0 0.6
2017-Apr-19 02:00N 37°48' W 122°24'0 0.0
2017-Apr-19 01:30N 37°48' W 122°24'3 6.2
2017-Apr-19 01:00N 37°48' W 122°20'816.9
2017-Apr-19 00:30N 37°48' W 122°31'3 5.2
2017-Apr-18 23:54N 37°47' W 122°34'718.1
2017-Apr-18 23:31N 37°49' W 122°26'611.0
2017-Apr-18 23:00N 37°45' W 122°21'3 6.8
2017-Apr-18 22:30N 37°48' W 122°22'1 2.4
2017-Apr-18 22:00N 37°48' W 122°24'0 0.0
2017-Apr-18 21:30N 37°48' W 122°24'2 3.3
2017-Apr-18 21:01N 37°49' W 122°25'816.0
2017-Apr-18 20:30N 37°47' W 122°35'2 3.7
2017-Apr-18 19:59N 37°47' W 122°33'715.4
2017-Apr-18 19:30N 37°48' W 122°24'0 0.4
2017-Apr-18 19:00N 37°48' W 122°24'0 0.4
2017-Apr-18 18:31N 37°48' W 122°24'0 0.0
2017-Apr-18 18:00N 37°48' W 122°24'1 1.7
2017-Apr-18 17:30N 37°48' W 122°23'2 4.4
2017-Apr-18 17:01N 37°46' W 122°21'4 4.2
2017-Apr-18 16:01N 37°49' W 122°25'0 0.0
2017-Apr-18 16:00N 37°49' W 122°25'510.7
2017-Apr-18 15:30N 37°48' W 122°19'0 0.1
2017-Apr-18 15:00N 37°48' W 122°18'4 7.6
2017-Apr-18 14:30N 37°48' W 122°23'0 0.5
2017-Apr-18 13:30N 37°48' W 122°24'0 0.0
2017-Apr-18 13:01N 37°48' W 122°24'0 0.0
2017-Apr-18 12:30N 37°48' W 122°24'0 0.0
2017-Apr-18 12:00N 37°48' W 122°24'0 0.0
2017-Apr-18 11:30N 37°48' W 122°24'0 0.0
2017-Apr-18 11:00N 37°48' W 122°24'0 0.0
2017-Apr-18 10:30N 37°48' W 122°24'0 0.0
2017-Apr-18 10:00N 37°48' W 122°24'0 0.0
2017-Apr-18 09:30N 37°48' W 122°24'2 4.2
2017-Apr-18 09:01N 37°49' W 122°26'3 5.2
2017-Apr-18 08:31N 37°48' W 122°23'1 1.3
2017-Apr-18 08:00N 37°48' W 122°24'0 0.0
2017-Apr-18 07:30N 37°48' W 122°24'0 0.0
2017-Apr-18 07:00N 37°48' W 122°24'0 0.0
2017-Apr-18 06:30N 37°48' W 122°24'0 0.0
2017-Apr-18 06:00N 37°48' W 122°24'0 0.0
2017-Apr-18 05:30N 37°48' W 122°24'0 0.0
2017-Apr-18 05:00N 37°48' W 122°24'0 0.0
2017-Apr-18 04:30N 37°48' W 122°24'0 0.0
2017-Apr-18 04:00N 37°48' W 122°24'0 0.0
2017-Apr-18 03:30N 37°48' W 122°24'0 0.0
2017-Apr-18 03:00N 37°48' W 122°24'0 0.0
2017-Apr-18 02:30N 37°48' W 122°24'0 0.0
2017-Apr-18 02:00N 37°48' W 122°24'0 0.0
2017-Apr-18 01:30N 37°48' W 122°24'4 8.7
2017-Apr-18 01:00N 37°48' W 122°18'4 8.5
2017-Apr-18 00:30N 37°48' W 122°24'3 5.2
2017-Apr-18 00:00N 37°48' W 122°21'0 0.1
2017-Apr-17 23:30N 37°48' W 122°21'2 3.3
2017-Apr-17 23:00N 37°47' W 122°21'3 5.1
2017-Apr-17 22:30N 37°48' W 122°24'0 0.0
2017-Apr-17 22:00N 37°48' W 122°24'0 0.0
2017-Apr-17 21:30N 37°48' W 122°24'0 0.0
2017-Apr-17 21:01N 37°48' W 122°24'0 0.0
2017-Apr-17 20:30N 37°48' W 122°24'0 0.0
2017-Apr-17 20:00N 37°48' W 122°24'0 0.0
2017-Apr-17 19:30N 37°48' W 122°24'0 0.0
2017-Apr-17 19:00N 37°48' W 122°24'0 0.0
2017-Apr-17 18:30N 37°48' W 122°24'4 7.7
2017-Apr-17 18:00N 37°45' W 122°21'4 7.6
2017-Apr-17 17:30N 37°48' W 122°24'5 9.9
2017-Apr-17 17:00N 37°47' W 122°17'0 0.0
2017-Apr-17 16:30N 37°47' W 122°17'0 0.0
2017-Apr-17 16:00N 37°47' W 122°17'0 0.0
2017-Apr-17 15:30N 37°47' W 122°17'0 0.0
2017-Apr-17 15:00N 37°47' W 122°17'0 0.0
2017-Apr-17 14:30N 37°47' W 122°17'2 1.8
2017-Apr-17 13:31N 37°48' W 122°20'1 1.4
2017-Apr-17 13:01N 37°48' W 122°19'4 7.9
2017-Apr-17 12:30N 37°48' W 122°24'0 0.0
2017-Apr-17 12:00N 37°48' W 122°24'0 0.0
2017-Apr-17 11:30N 37°48' W 122°24'2 4.2
2017-Apr-17 11:00N 37°49' W 122°26'2 4.2
2017-Apr-17 10:30N 37°48' W 122°24'0 0.0
2017-Apr-17 10:00N 37°48' W 122°24'2 4.8
2017-Apr-17 09:30N 37°46' W 122°22'2 4.8
2017-Apr-17 09:00N 37°48' W 122°24'0 0.0
2017-Apr-17 08:30N 37°48' W 122°24'0 0.0
2017-Apr-17 08:00N 37°48' W 122°24'0 0.0
2017-Apr-17 07:30N 37°48' W 122°24'0 0.0
2017-Apr-17 07:00N 37°48' W 122°24'0 0.0
2017-Apr-17 06:30N 37°48' W 122°24'0 0.0
2017-Apr-17 06:00N 37°48' W 122°24'2 4.2
2017-Apr-17 05:30N 37°47' W 122°22'2 4.2
2017-Apr-17 05:00N 37°48' W 122°24'0 0.0
2017-Apr-17 04:31N 37°48' W 122°24'0 0.0
2017-Apr-17 04:00N 37°48' W 122°24'0 0.0
2017-Apr-17 03:30N 37°48' W 122°24'0 0.0
2017-Apr-17 03:00N 37°48' W 122°24'0 0.0
2017-Apr-17 02:30N 37°48' W 122°24'0 0.0
2017-Apr-17 02:00N 37°48' W 122°24'0 0.0
2017-Apr-17 01:31N 37°48' W 122°24'0 0.0
2017-Apr-17 01:00N 37°48' W 122°24'0 0.0
2017-Apr-17 00:30N 37°48' W 122°24'0 0.0
2017-Apr-17 00:00N 37°48' W 122°24'0 0.0
2017-Apr-16 23:31N 37°48' W 122°24'0 0.0
2017-Apr-16 23:00N 37°48' W 122°24'0 0.0
2017-Apr-16 22:31N 37°48' W 122°24'0 0.0
2017-Apr-16 22:00N 37°48' W 122°24'0 0.0
2017-Apr-16 21:31N 37°48' W 122°24'0 0.0
2017-Apr-16 21:00N 37°48' W 122°24'0 0.0
2017-Apr-16 20:30N 37°48' W 122°24'1 1.8
2017-Apr-16 20:00N 37°48' W 122°23'4 7.4
2017-Apr-16 19:30N 37°50' W 122°26'1 2.7
2017-Apr-16 19:00N 37°49' W 122°26'2 4.0
2017-Apr-16 18:30N 37°48' W 122°24'510.1
2017-Apr-16 18:00N 37°44' W 122°20'510.3
2017-Apr-16 17:30N 37°48' W 122°24'0 0.4
2017-Apr-16 17:00N 37°48' W 122°24'4 7.7
2017-Apr-16 16:31N 37°49' W 122°28'4 8.3
2017-Apr-16 16:00N 37°47' W 122°33'917.8
2017-Apr-16 15:30N 37°47' W 122°22'1 2.6
2017-Apr-16 15:00N 37°48' W 122°23'0 0.5
2017-Apr-16 14:30N 37°48' W 122°24'0 0.0
2017-Apr-16 13:30N 37°48' W 122°24'0 0.0
2017-Apr-16 13:00N 37°48' W 122°24'0 0.0
2017-Apr-16 12:31N 37°48' W 122°24'0 0.0
2017-Apr-16 12:00N 37°48' W 122°24'0 0.0
2017-Apr-16 11:30N 37°48' W 122°24'0 0.0
2017-Apr-16 11:00N 37°48' W 122°24'0 0.0
2017-Apr-16 10:30N 37°48' W 122°24'0 0.0
2017-Apr-16 10:00N 37°48' W 122°24'3 6.9
2017-Apr-16 09:30N 37°50' W 122°27'611.3
2017-Apr-16 09:00N 37°49' W 122°20'3 5.6
2017-Apr-16 08:30N 37°48' W 122°24'0 0.0
2017-Apr-16 08:00N 37°48' W 122°24'0 0.0
2017-Apr-16 07:30N 37°48' W 122°24'0 0.0
2017-Apr-16 07:00N 37°48' W 122°24'0 0.0
2017-Apr-16 06:30N 37°48' W 122°24'0 0.0
2017-Apr-16 06:00N 37°48' W 122°24'0 0.0
2017-Apr-16 05:30N 37°48' W 122°24'0 0.0
2017-Apr-16 05:00N 37°48' W 122°24'0 0.0
2017-Apr-16 04:30N 37°48' W 122°24'510.7
2017-Apr-16 04:00N 37°48' W 122°31'4 7.8
2017-Apr-16 03:29N 37°47' W 122°35'1019.7
2017-Apr-16 03:00N 37°48' W 122°23'3 6.2
2017-Apr-16 02:30N 37°48' W 122°20'3 6.7
2017-Apr-16 02:00N 37°48' W 122°24'0 0.0
2017-Apr-16 01:30N 37°48' W 122°24'0 0.0
2017-Apr-16 01:00N 37°48' W 122°24'0 0.0
2017-Apr-16 00:30N 37°48' W 122°24'0 0.0
2017-Apr-16 00:00N 37°48' W 122°24'0 0.0
2017-Apr-15 23:30N 37°48' W 122°24'1 1.7
2017-Apr-15 23:00N 37°49' W 122°24'1 1.7
2017-Apr-15 22:30N 37°48' W 122°24'0 0.0
2017-Apr-15 22:01N 37°48' W 122°24'0 0.0
2017-Apr-15 21:30N 37°48' W 122°24'0 0.5
2017-Apr-15 21:00N 37°48' W 122°24'0 0.5
2017-Apr-15 20:30N 37°48' W 122°23'0 0.8
2017-Apr-15 20:00N 37°48' W 122°24'1 2.6
2017-Apr-15 19:31N 37°49' W 122°25'0 0.2
2017-Apr-15 19:01N 37°49' W 122°25'4 7.4
2017-Apr-15 18:30N 37°47' W 122°21'2 4.9
2017-Apr-15 18:01N 37°48' W 122°24'0 0.0
2017-Apr-15 17:31N 37°48' W 122°24'3 5.3
2017-Apr-15 17:00N 37°49' W 122°27'510.6
2017-Apr-15 16:30N 37°49' W 122°20'1 1.0
2017-Apr-15 16:00N 37°49' W 122°20'1 1.2
2017-Apr-15 15:31N 37°49' W 122°20'3 5.5
2017-Apr-15 15:00N 37°48' W 122°24'0 0.0
2017-Apr-15 14:31N 37°48' W 122°24'0 0.0
2017-Apr-15 13:31N 37°48' W 122°24'  
Track history (hours):
 
Tides and Currents Weather Stations Pressure Air Temp Water Temp Dewpoint Dewpoint Depression Visibility Wind Speed Wind Dir Waves Ship Positions

P/v Golden Gate

Owner: San Francisco Bar Pilots Benevolent and Protective, San Francisco, CA. More information available from US FCC via Universal Licensing System and Coast Guard Vessel Documentation Center.

Last reported at 2017-Apr-25 13:31 UTC. Time now 2017-Apr-25 14:32 UTC.
Position N 37°48' W 122°24'.

Length 23 m; draft 2 m.

Type: Pilot. MMSI: 367370010.

Date/timePositionNaut miles runAvg speedWind from/ knotsBaromVisibWave heightAir tempDewpointWater temp
2017-Apr-25 13:31N 37°48' W 122°24'0 0.0
2017-Apr-25 13:00N 37°48' W 122°24'0 0.0
2017-Apr-25 12:30N 37°48' W 122°24'3 5.6
2017-Apr-25 12:00N 37°49' W 122°27'510.8
2017-Apr-25 11:30N 37°48' W 122°20'510.1
2017-Apr-25 11:00N 37°49' W 122°27'510.3
2017-Apr-25 10:31N 37°48' W 122°20'3 5.5
2017-Apr-25 10:00N 37°48' W 122°24'0 0.0
2017-Apr-25 09:30N 37°48' W 122°24'0 0.0
2017-Apr-25 09:00N 37°48' W 122°24'0 0.2
2017-Apr-25 08:30N 37°48' W 122°24'3 6.8
2017-Apr-25 08:01N 37°48' W 122°19'3 6.9
2017-Apr-25 07:31N 37°48' W 122°24'2 3.4
2017-Apr-25 07:00N 37°47' W 122°22'2 3.4
2017-Apr-25 06:30N 37°48' W 122°24'0 0.0
2017-Apr-25 06:00N 37°48' W 122°24'0 0.0
2017-Apr-25 05:30N 37°48' W 122°24'0 0.0
2017-Apr-25 05:00N 37°48' W 122°24'611.0
2017-Apr-25 04:30N 37°44' W 122°20'611.0
2017-Apr-25 04:00N 37°48' W 122°24'0 0.0
2017-Apr-25 03:30N 37°48' W 122°24'0 0.0
2017-Apr-25 03:00N 37°48' W 122°24'0 0.0
2017-Apr-25 02:30N 37°48' W 122°24'1 2.1
2017-Apr-25 02:00N 37°47' W 122°23'1 2.1
2017-Apr-25 01:30N 37°48' W 122°24'0 0.0
2017-Apr-25 01:01N 37°48' W 122°24'0 0.0
2017-Apr-25 00:30N 37°48' W 122°24'0 0.0
2017-Apr-25 00:01N 37°48' W 122°24'0 0.0
2017-Apr-24 23:30N 37°48' W 122°24'0 0.0
2017-Apr-24 23:01N 37°48' W 122°24'0 0.0
2017-Apr-24 22:30N 37°48' W 122°24'0 0.0
2017-Apr-24 22:01N 37°48' W 122°24'0 0.0
2017-Apr-24 21:30N 37°48' W 122°24'0 0.0
2017-Apr-24 21:00N 37°48' W 122°24'0 0.0
2017-Apr-24 20:29N 37°48' W 122°24'0 0.0
2017-Apr-24 19:59N 37°48' W 122°24'0 0.0
2017-Apr-24 19:30N 37°48' W 122°24'0 0.0
2017-Apr-24 19:00N 37°48' W 122°24'4 7.4
2017-Apr-24 18:30N 37°49' W 122°28'815.6
2017-Apr-24 17:59N 37°46' W 122°38'612.1
2017-Apr-24 17:30N 37°48' W 122°31'5 4.6
2017-Apr-24 16:30N 37°49' W 122°25'611.1
2017-Apr-24 16:01N 37°44' W 122°21'4 8.6
2017-Apr-24 15:30N 37°48' W 122°23'5 9.8
2017-Apr-24 15:00N 37°44' W 122°20'4 7.6
2017-Apr-24 14:30N 37°48' W 122°20'5 5.1
2017-Apr-24 13:30N 37°49' W 122°26'612.0
2017-Apr-24 13:00N 37°45' W 122°20'4 8.4
2017-Apr-24 12:30N 37°48' W 122°24'0 0.0
2017-Apr-24 12:00N 37°48' W 122°24'0 0.0
2017-Apr-24 11:30N 37°48' W 122°24'0 0.0
2017-Apr-24 11:00N 37°48' W 122°24'4 8.4
2017-Apr-24 10:30N 37°44' W 122°21'1 2.7
2017-Apr-24 10:01N 37°46' W 122°21'3 5.4
2017-Apr-24 09:30N 37°48' W 122°23'2 4.2
2017-Apr-24 09:00N 37°46' W 122°21'3 5.1
2017-Apr-24 08:30N 37°48' W 122°24'0 0.0
2017-Apr-24 08:01N 37°48' W 122°24'0 0.0
2017-Apr-24 07:30N 37°48' W 122°24'0 0.0
2017-Apr-24 07:00N 37°48' W 122°24'0 0.0
2017-Apr-24 06:30N 37°48' W 122°24'0 0.0
2017-Apr-24 06:00N 37°48' W 122°24'0 0.0
2017-Apr-24 05:30N 37°48' W 122°24'0 0.0
2017-Apr-24 05:00N 37°48' W 122°24'0 0.0
2017-Apr-24 04:30N 37°48' W 122°24'0 0.0
2017-Apr-24 04:00N 37°48' W 122°24'0 0.0
2017-Apr-24 03:30N 37°48' W 122°24'0 0.0
2017-Apr-24 03:00N 37°48' W 122°24'0 0.0
2017-Apr-24 02:29N 37°48' W 122°24'2 3.8
2017-Apr-24 02:01N 37°48' W 122°21'2 3.6
2017-Apr-24 01:30N 37°48' W 122°24'0 0.0
2017-Apr-24 01:00N 37°48' W 122°24'0 0.0
2017-Apr-24 00:31N 37°48' W 122°24'5 9.7
2017-Apr-24 00:00N 37°44' W 122°20'4 8.9
2017-Apr-23 23:30N 37°48' W 122°22'4 7.4
2017-Apr-23 23:01N 37°45' W 122°20'4 8.4
2017-Apr-23 22:30N 37°48' W 122°24'0 0.0
2017-Apr-23 22:00N 37°48' W 122°24'0 0.0
2017-Apr-23 21:30N 37°48' W 122°24'0 0.0
2017-Apr-23 21:00N 37°48' W 122°24'0 0.0
2017-Apr-23 20:31N 37°48' W 122°24'0 0.0
2017-Apr-23 20:00N 37°48' W 122°24'0 0.0
2017-Apr-23 19:30N 37°48' W 122°24'0 0.0
2017-Apr-23 19:00N 37°48' W 122°24'0 0.0
2017-Apr-23 18:30N 37°48' W 122°24'0 0.0
2017-Apr-23 18:00N 37°48' W 122°24'0 0.0
2017-Apr-23 17:29N 37°48' W 122°24'3 6.8
2017-Apr-23 17:00N 37°46' W 122°20'3 6.5
2017-Apr-23 16:30N 37°48' W 122°24'0 0.0
2017-Apr-23 16:00N 37°48' W 122°24'0 0.0
2017-Apr-23 15:30N 37°48' W 122°24'0 0.0
2017-Apr-23 15:00N 37°48' W 122°24'4 3.6
2017-Apr-23 14:01N 37°48' W 122°19'510.4
2017-Apr-23 13:30N 37°50' W 122°25'2 4.3
2017-Apr-23 12:59N 37°48' W 122°24'4 8.7
2017-Apr-23 12:31N 37°45' W 122°20'4 8.3
2017-Apr-23 12:00N 37°48' W 122°24'0 0.0
2017-Apr-23 11:30N 37°48' W 122°24'4 8.9
2017-Apr-23 11:00N 37°49' W 122°29'914.6
2017-Apr-23 10:24N 37°45' W 122°40'510.4
2017-Apr-23 09:55N 37°47' W 122°33'820.8
2017-Apr-23 09:31N 37°49' W 122°23'1 1.6
2017-Apr-23 09:01N 37°48' W 122°24'0 0.0
2017-Apr-23 08:30N 37°48' W 122°24'0 0.0
2017-Apr-23 08:00N 37°48' W 122°24'0 0.0
2017-Apr-23 07:30N 37°48' W 122°24'0 0.0
2017-Apr-23 07:01N 37°48' W 122°24'4 8.6
2017-Apr-23 06:30N 37°49' W 122°29'4 8.5
2017-Apr-23 06:00N 37°48' W 122°24'0 0.0
2017-Apr-23 05:30N 37°48' W 122°24'2 3.6
2017-Apr-23 05:00N 37°47' W 122°22'4 7.2
2017-Apr-23 04:30N 37°49' W 122°26'611.1
2017-Apr-23 04:01N 37°45' W 122°21'4 7.5
2017-Apr-23 03:30N 37°48' W 122°24'0 0.0
2017-Apr-23 03:00N 37°48' W 122°24'0 0.0
2017-Apr-23 02:30N 37°48' W 122°24'0 0.0
2017-Apr-23 02:00N 37°48' W 122°24'0 0.0
2017-Apr-23 01:30N 37°48' W 122°24'0 0.0
2017-Apr-23 01:00N 37°48' W 122°24'3 5.1
2017-Apr-23 00:30N 37°48' W 122°21'3 5.2
2017-Apr-23 00:00N 37°48' W 122°24'0 0.0
2017-Apr-22 23:30N 37°48' W 122°24'0 0.0
2017-Apr-22 23:00N 37°48' W 122°24'0 0.0
2017-Apr-22 22:30N 37°48' W 122°24'0 0.0
2017-Apr-22 22:00N 37°48' W 122°24'0 1.0
2017-Apr-22 21:30N 37°48' W 122°23'3 6.9
2017-Apr-22 21:01N 37°49' W 122°27'6 9.9
2017-Apr-22 20:26N 37°47' W 122°34'819.4
2017-Apr-22 20:00N 37°48' W 122°24'0 0.0
2017-Apr-22 19:30N 37°48' W 122°24'0 0.0
2017-Apr-22 19:01N 37°48' W 122°24'0 0.0
2017-Apr-22 18:31N 37°48' W 122°24'0 0.0
2017-Apr-22 18:01N 37°48' W 122°24'0 0.0
2017-Apr-22 17:31N 37°48' W 122°24'0 0.0
2017-Apr-22 17:00N 37°48' W 122°24'0 0.0
2017-Apr-22 16:31N 37°48' W 122°24'1 2.4
2017-Apr-22 16:00N 37°49' W 122°25'2 4.5
2017-Apr-22 15:30N 37°48' W 122°22'4 8.8
2017-Apr-22 15:00N 37°50' W 122°27'4 7.0
2017-Apr-22 14:30N 37°48' W 122°24'3 2.9
2017-Apr-22 13:30N 37°49' W 122°20'3 5.6
2017-Apr-22 13:00N 37°48' W 122°24'0 0.0
2017-Apr-22 12:31N 37°48' W 122°24'2 3.4
2017-Apr-22 12:00N 37°48' W 122°22'5 9.5
2017-Apr-22 11:31N 37°49' W 122°27'2 3.5
2017-Apr-22 11:01N 37°49' W 122°25'1 2.9
2017-Apr-22 10:30N 37°48' W 122°24'0 0.0
2017-Apr-22 10:00N 37°48' W 122°24'1 2.5
2017-Apr-22 09:31N 37°47' W 122°22'1 2.5
2017-Apr-22 09:00N 37°48' W 122°24'0 0.0
2017-Apr-22 08:30N 37°48' W 122°24'0 0.0
2017-Apr-22 08:00N 37°48' W 122°24'0 0.0
2017-Apr-22 07:30N 37°48' W 122°24'0 0.0
2017-Apr-22 07:00N 37°48' W 122°24'0 0.5
2017-Apr-22 06:31N 37°48' W 122°24'0 0.3
2017-Apr-22 06:00N 37°48' W 122°23'0 0.6
2017-Apr-22 05:30N 37°48' W 122°24'0 0.0
2017-Apr-22 05:00N 37°48' W 122°24'0 0.0
2017-Apr-22 04:30N 37°48' W 122°24'3 5.9
2017-Apr-22 04:00N 37°51' W 122°26'3 5.8
2017-Apr-22 03:30N 37°48' W 122°24'0 0.0
2017-Apr-22 03:00N 37°48' W 122°24'0 0.0
2017-Apr-22 02:31N 37°48' W 122°24'0 0.0
2017-Apr-22 02:01N 37°48' W 122°24'1 2.8
2017-Apr-22 01:30N 37°48' W 122°22'1 2.8
2017-Apr-22 01:00N 37°48' W 122°24'0 0.1
2017-Apr-22 00:30N 37°48' W 122°24'2 4.3
2017-Apr-22 00:00N 37°47' W 122°22'2 4.2
2017-Apr-21 23:30N 37°48' W 122°24'0 0.0
2017-Apr-21 23:00N 37°48' W 122°24'0 0.5
2017-Apr-21 22:31N 37°48' W 122°24'3 5.4
2017-Apr-21 22:01N 37°48' W 122°20'3 5.4
2017-Apr-21 21:30N 37°48' W 122°24'0 0.0
2017-Apr-21 21:00N 37°48' W 122°24'0 0.0
2017-Apr-21 20:30N 37°48' W 122°24'0 0.0
2017-Apr-21 20:00N 37°48' W 122°24'0 0.0
2017-Apr-21 19:30N 37°48' W 122°24'0 0.0
2017-Apr-21 19:00N 37°48' W 122°24'3 6.1
2017-Apr-21 18:30N 37°49' W 122°27'3 5.1
2017-Apr-21 17:51N 37°48' W 122°32'720.1
2017-Apr-21 17:31N 37°48' W 122°23'0 0.9
2017-Apr-21 17:00N 37°48' W 122°24'0 0.4
2017-Apr-21 16:30N 37°48' W 122°24'0 0.0
2017-Apr-21 16:00N 37°48' W 122°24'0 0.0
2017-Apr-21 15:30N 37°48' W 122°24'0 0.0
2017-Apr-21 15:00N 37°48' W 122°24'0 0.0
2017-Apr-21 14:30N 37°48' W 122°24'1 2.5
2017-Apr-21 14:01N 37°49' W 122°25'1 2.9
2017-Apr-21 13:30N 37°48' W 122°23'1 1.5
2017-Apr-21 13:00N 37°48' W 122°23'5 9.0
2017-Apr-21 12:31N 37°49' W 122°28'4 8.0
2017-Apr-21 12:00N 37°48' W 122°33'714.4
2017-Apr-21 11:31N 37°48' W 122°24'0 0.0
2017-Apr-21 10:59N 37°48' W 122°24'0 0.0
2017-Apr-21 10:31N 37°48' W 122°24'0 0.0
2017-Apr-21 10:00N 37°48' W 122°24'0 0.0
2017-Apr-21 09:31N 37°48' W 122°24'0 0.0
2017-Apr-21 09:01N 37°48' W 122°24'0 0.0
2017-Apr-21 08:31N 37°48' W 122°24'0 0.0
2017-Apr-21 07:58N 37°48' W 122°24'0 0.0
2017-Apr-21 07:30N 37°48' W 122°24'0 0.0
2017-Apr-21 07:01N 37°48' W 122°24'0 0.0
2017-Apr-21 06:31N 37°48' W 122°24'0 0.0
2017-Apr-21 06:00N 37°48' W 122°24'0 0.0
2017-Apr-21 05:31N 37°48' W 122°24'0 0.0
2017-Apr-21 05:01N 37°48' W 122°24'0 0.0
2017-Apr-21 04:30N 37°48' W 122°24'0 0.0
2017-Apr-21 04:00N 37°48' W 122°24'0 0.0
2017-Apr-21 03:31N 37°48' W 122°24'0 0.4
2017-Apr-21 03:01N 37°48' W 122°24'1121.9
2017-Apr-21 02:30N 37°46' W 122°37'612.4
2017-Apr-21 02:01N 37°49' W 122°30'815.7
2017-Apr-21 01:31N 37°46' W 122°21'4 8.3
2017-Apr-21 01:00N 37°49' W 122°24'611.4
2017-Apr-21 00:30N 37°45' W 122°20'0 0.9
2017-Apr-21 00:01N 37°44' W 122°20'5 9.9
2017-Apr-20 23:30N 37°48' W 122°24'0 0.0
2017-Apr-20 23:00N 37°48' W 122°24'0 0.0
2017-Apr-20 22:30N 37°48' W 122°24'0 0.0
2017-Apr-20 22:00N 37°48' W 122°24'0 0.0
2017-Apr-20 21:30N 37°48' W 122°24'0 0.0
2017-Apr-20 21:00N 37°48' W 122°24'0 0.0
2017-Apr-20 20:30N 37°48' W 122°24'0 0.0
2017-Apr-20 20:00N 37°48' W 122°24'0 0.0
2017-Apr-20 19:30N 37°48' W 122°24'0 0.0
2017-Apr-20 19:00N 37°48' W 122°24'0 0.0
2017-Apr-20 18:30N 37°48' W 122°24'0 0.0
2017-Apr-20 18:00N 37°48' W 122°24'0 0.0
2017-Apr-20 17:30N 37°48' W 122°24'0 0.0
2017-Apr-20 17:00N 37°48' W 122°24'0 0.0
2017-Apr-20 16:30N 37°48' W 122°24'3 6.6
2017-Apr-20 16:00N 37°49' W 122°20'4 8.9
2017-Apr-20 15:31N 37°49' W 122°25'816.3
2017-Apr-20 15:00N 37°47' W 122°35'1019.4
2017-Apr-20 14:31N 37°48' W 122°23'2 2.0
2017-Apr-20 13:30N 37°48' W 122°21'2 3.9
2017-Apr-20 13:00N 37°46' W 122°22'4 7.8
2017-Apr-20 12:30N 37°49' W 122°25'2 3.0
2017-Apr-20 12:00N 37°48' W 122°24'0 0.0
2017-Apr-20 11:30N 37°48' W 122°24'0 0.0
2017-Apr-20 10:58N 37°48' W 122°24'0 0.0
2017-Apr-20 09:59N 37°48' W 122°24'0 0.0
2017-Apr-20 08:45N 37°48' W 122°24'0 0.0
2017-Apr-20 08:27N 37°48' W 122°24'0 0.3
2017-Apr-20 07:56N 37°48' W 122°24'3 5.9
2017-Apr-20 07:30N 37°46' W 122°22'3 5.0
2017-Apr-20 07:00N 37°48' W 122°24'0 0.0
2017-Apr-20 06:30N 37°48' W 122°24'0 0.0
2017-Apr-20 06:00N 37°48' W 122°24'0 0.0
2017-Apr-20 05:30N 37°48' W 122°24'0 0.4
2017-Apr-20 05:00N 37°48' W 122°24'0 0.9
2017-Apr-20 04:31N 37°49' W 122°24'1 1.2
2017-Apr-20 04:00N 37°48' W 122°24'0 0.0
2017-Apr-20 03:30N 37°48' W 122°24'4 7.0
2017-Apr-20 03:01N 37°48' W 122°19'0 0.1
2017-Apr-20 02:31N 37°48' W 122°19'0 0.0
2017-Apr-20 02:00N 37°48' W 122°19'4 7.1
2017-Apr-20 01:30N 37°48' W 122°24'0 0.0
2017-Apr-20 00:15N 37°48' W 122°24'313.4
2017-Apr-20 00:00N 37°49' W 122°20'3 6.4
2017-Apr-19 23:30N 37°48' W 122°24'0 0.0
2017-Apr-19 23:00N 37°48' W 122°24'0 0.0
2017-Apr-19 22:30N 37°48' W 122°24'0 0.0
2017-Apr-19 22:00N 37°48' W 122°24'0 0.0
2017-Apr-19 21:30N 37°48' W 122°24'1 1.4
2017-Apr-19 21:00N 37°48' W 122°23'1 1.3
2017-Apr-19 20:29N 37°48' W 122°24'0 0.0
2017-Apr-19 20:01N 37°48' W 122°24'0 0.0
2017-Apr-19 19:29N 37°48' W 122°24'3 7.1
2017-Apr-19 19:01N 37°49' W 122°20'1 1.5
2017-Apr-19 18:30N 37°48' W 122°19'0 0.4
2017-Apr-19 18:00N 37°48' W 122°20'611.4
2017-Apr-19 17:30N 37°50' W 122°26'2 3.2
2017-Apr-19 17:00N 37°49' W 122°28'2 4.5
2017-Apr-19 16:30N 37°49' W 122°25'0 0.0
2017-Apr-19 15:57N 37°49' W 122°25'2 5.0
2017-Apr-19 15:31N 37°47' W 122°23'0 0.8
2017-Apr-19 15:01N 37°48' W 122°23'3 5.9
2017-Apr-19 14:30N 37°48' W 122°19'2 1.8
2017-Apr-19 13:31N 37°47' W 122°21'2 4.5
2017-Apr-19 13:00N 37°48' W 122°24'0 0.0
2017-Apr-19 12:30N 37°48' W 122°24'0 0.0
2017-Apr-19 12:00N 37°48' W 122°24'0 0.0
2017-Apr-19 11:31N 37°48' W 122°24'0 0.0
2017-Apr-19 11:00N 37°48' W 122°24'0 0.0
2017-Apr-19 10:30N 37°48' W 122°24'0 0.0
2017-Apr-19 10:00N 37°48' W 122°24'1 2.6
2017-Apr-19 09:31N 37°48' W 122°22'4 7.5
2017-Apr-19 09:01N 37°49' W 122°27'4 8.9
2017-Apr-19 08:31N 37°48' W 122°21'3 6.0
2017-Apr-19 08:00N 37°48' W 122°18'4 8.5
2017-Apr-19 07:30N 37°48' W 122°23'3 6.6
2017-Apr-19 07:00N 37°48' W 122°19'0 0.6
2017-Apr-19 06:31N 37°48' W 122°18'1 1.3
2017-Apr-19 06:00N 37°48' W 122°18'1 1.2
2017-Apr-19 05:31N 37°48' W 122°18'4 8.6
2017-Apr-19 05:00N 37°48' W 122°24'0 0.0
2017-Apr-19 04:30N 37°48' W 122°24'3 5.2
2017-Apr-19 04:00N 37°49' W 122°27'3 5.3
2017-Apr-19 03:30N 37°48' W 122°24'4 7.6
2017-Apr-19 03:00N 37°48' W 122°19'4 7.2
2017-Apr-19 02:30N 37°48' W 122°23'0 0.6
2017-Apr-19 02:00N 37°48' W 122°24'0 0.0
2017-Apr-19 01:30N 37°48' W 122°24'3 6.2
2017-Apr-19 01:00N 37°48' W 122°20'816.9
2017-Apr-19 00:30N 37°48' W 122°31'3 5.2
2017-Apr-18 23:54N 37°47' W 122°34'718.1
2017-Apr-18 23:31N 37°49' W 122°26'611.0
2017-Apr-18 23:00N 37°45' W 122°21'3 6.8
2017-Apr-18 22:30N 37°48' W 122°22'1 2.4
2017-Apr-18 22:00N 37°48' W 122°24'0 0.0
2017-Apr-18 21:30N 37°48' W 122°24'2 3.3
2017-Apr-18 21:01N 37°49' W 122°25'816.0
2017-Apr-18 20:30N 37°47' W 122°35'2 3.7
2017-Apr-18 19:59N 37°47' W 122°33'715.4
2017-Apr-18 19:30N 37°48' W 122°24'0 0.4
2017-Apr-18 19:00N 37°48' W 122°24'0 0.4
2017-Apr-18 18:31N 37°48' W 122°24'0 0.0
2017-Apr-18 18:00N 37°48' W 122°24'1 1.7
2017-Apr-18 17:30N 37°48' W 122°23'2 4.4
2017-Apr-18 17:01N 37°46' W 122°21'4 4.2
2017-Apr-18 16:01N 37°49' W 122°25'0 0.0
2017-Apr-18 16:00N 37°49' W 122°25'510.7
2017-Apr-18 15:30N 37°48' W 122°19'0 0.1
2017-Apr-18 15:00N 37°48' W 122°18'4 7.6
2017-Apr-18 14:30N 37°48' W 122°23'0 0.5
2017-Apr-18 13:30N 37°48' W 122°24'0 0.0
2017-Apr-18 13:01N 37°48' W 122°24'0 0.0
2017-Apr-18 12:30N 37°48' W 122°24'0 0.0
2017-Apr-18 12:00N 37°48' W 122°24'0 0.0
2017-Apr-18 11:30N 37°48' W 122°24'0 0.0
2017-Apr-18 11:00N 37°48' W 122°24'0 0.0
2017-Apr-18 10:30N 37°48' W 122°24'0 0.0
2017-Apr-18 10:00N 37°48' W 122°24'0 0.0
2017-Apr-18 09:30N 37°48' W 122°24'2 4.2
2017-Apr-18 09:01N 37°49' W 122°26'3 5.2
2017-Apr-18 08:31N 37°48' W 122°23'1 1.3
2017-Apr-18 08:00N 37°48' W 122°24'0 0.0
2017-Apr-18 07:30N 37°48' W 122°24'0 0.0
2017-Apr-18 07:00N 37°48' W 122°24'0 0.0
2017-Apr-18 06:30N 37°48' W 122°24'0 0.0
2017-Apr-18 06:00N 37°48' W 122°24'0 0.0
2017-Apr-18 05:30N 37°48' W 122°24'0 0.0
2017-Apr-18 05:00N 37°48' W 122°24'0 0.0
2017-Apr-18 04:30N 37°48' W 122°24'0 0.0
2017-Apr-18 04:00N 37°48' W 122°24'0 0.0
2017-Apr-18 03:30N 37°48' W 122°24'0 0.0
2017-Apr-18 03:00N 37°48' W 122°24'0 0.0
2017-Apr-18 02:30N 37°48' W 122°24'0 0.0
2017-Apr-18 02:00N 37°48' W 122°24'0 0.0
2017-Apr-18 01:30N 37°48' W 122°24'4 8.7
2017-Apr-18 01:00N 37°48' W 122°18'4 8.5
2017-Apr-18 00:30N 37°48' W 122°24'3 5.2
2017-Apr-18 00:00N 37°48' W 122°21'0 0.1
2017-Apr-17 23:30N 37°48' W 122°21'2 3.3
2017-Apr-17 23:00N 37°47' W 122°21'3 5.1
2017-Apr-17 22:30N 37°48' W 122°24'0 0.0
2017-Apr-17 22:00N 37°48' W 122°24'0 0.0
2017-Apr-17 21:30N 37°48' W 122°24'0 0.0
2017-Apr-17 21:01N 37°48' W 122°24'0 0.0
2017-Apr-17 20:30N 37°48' W 122°24'0 0.0
2017-Apr-17 20:00N 37°48' W 122°24'0 0.0
2017-Apr-17 19:30N 37°48' W 122°24'0 0.0
2017-Apr-17 19:00N 37°48' W 122°24'0 0.0
2017-Apr-17 18:30N 37°48' W 122°24'4 7.7
2017-Apr-17 18:00N 37°45' W 122°21'4 7.6
2017-Apr-17 17:30N 37°48' W 122°24'5 9.9
2017-Apr-17 17:00N 37°47' W 122°17'0 0.0
2017-Apr-17 16:30N 37°47' W 122°17'0 0.0
2017-Apr-17 16:00N 37°47' W 122°17'0 0.0
2017-Apr-17 15:30N 37°47' W 122°17'0 0.0
2017-Apr-17 15:00N 37°47' W 122°17'0 0.0
2017-Apr-17 14:30N 37°47' W 122°17'2 1.8
2017-Apr-17 13:31N 37°48' W 122°20'1 1.4
2017-Apr-17 13:01N 37°48' W 122°19'4 7.9
2017-Apr-17 12:30N 37°48' W 122°24'0 0.0
2017-Apr-17 12:00N 37°48' W 122°24'0 0.0
2017-Apr-17 11:30N 37°48' W 122°24'2 4.2
2017-Apr-17 11:00N 37°49' W 122°26'2 4.2
2017-Apr-17 10:30N 37°48' W 122°24'0 0.0
2017-Apr-17 10:00N 37°48' W 122°24'2 4.8
2017-Apr-17 09:30N 37°46' W 122°22'2 4.8
2017-Apr-17 09:00N 37°48' W 122°24'0 0.0
2017-Apr-17 08:30N 37°48' W 122°24'0 0.0
2017-Apr-17 08:00N 37°48' W 122°24'0 0.0
2017-Apr-17 07:30N 37°48' W 122°24'0 0.0
2017-Apr-17 07:00N 37°48' W 122°24'0 0.0
2017-Apr-17 06:30N 37°48' W 122°24'0 0.0
2017-Apr-17 06:00N 37°48' W 122°24'2 4.2
2017-Apr-17 05:30N 37°47' W 122°22'2 4.2
2017-Apr-17 05:00N 37°48' W 122°24'0 0.0
2017-Apr-17 04:31N 37°48' W 122°24'0 0.0
2017-Apr-17 04:00N 37°48' W 122°24'0 0.0
2017-Apr-17 03:30N 37°48' W 122°24'0 0.0
2017-Apr-17 03:00N 37°48' W 122°24'0 0.0
2017-Apr-17 02:30N 37°48' W 122°24'0 0.0
2017-Apr-17 02:00N 37°48' W 122°24'0 0.0
2017-Apr-17 01:31N 37°48' W 122°24'0 0.0
2017-Apr-17 01:00N 37°48' W 122°24'0 0.0
2017-Apr-17 00:30N 37°48' W 122°24'0 0.0
2017-Apr-17 00:00N 37°48' W 122°24'0 0.0
2017-Apr-16 23:31N 37°48' W 122°24'0 0.0
2017-Apr-16 23:00N 37°48' W 122°24'0 0.0
2017-Apr-16 22:31N 37°48' W 122°24'0 0.0
2017-Apr-16 22:00N 37°48' W 122°24'0 0.0
2017-Apr-16 21:31N 37°48' W 122°24'0 0.0
2017-Apr-16 21:00N 37°48' W 122°24'0 0.0
2017-Apr-16 20:30N 37°48' W 122°24'1 1.8
2017-Apr-16 20:00N 37°48' W 122°23'4 7.4
2017-Apr-16 19:30N 37°50' W 122°26'1 2.7
2017-Apr-16 19:00N 37°49' W 122°26'2 4.0
2017-Apr-16 18:30N 37°48' W 122°24'510.1
2017-Apr-16 18:00N 37°44' W 122°20'510.3
2017-Apr-16 17:30N 37°48' W 122°24'0 0.4
2017-Apr-16 17:00N 37°48' W 122°24'4 7.7
2017-Apr-16 16:31N 37°49' W 122°28'4 8.3
2017-Apr-16 16:00N 37°47' W 122°33'917.8
2017-Apr-16 15:30N 37°47' W 122°22'1 2.6
2017-Apr-16 15:00N 37°48' W 122°23'0 0.5
2017-Apr-16 14:30N 37°48' W 122°24'0 0.0
2017-Apr-16 13:30N 37°48' W 122°24'0 0.0
2017-Apr-16 13:00N 37°48' W 122°24'0 0.0
2017-Apr-16 12:31N 37°48' W 122°24'0 0.0
2017-Apr-16 12:00N 37°48' W 122°24'0 0.0
2017-Apr-16 11:30N 37°48' W 122°24'0 0.0
2017-Apr-16 11:00N 37°48' W 122°24'0 0.0
2017-Apr-16 10:30N 37°48' W 122°24'0 0.0
2017-Apr-16 10:00N 37°48' W 122°24'3 6.9
2017-Apr-16 09:30N 37°50' W 122°27'611.3
2017-Apr-16 09:00N 37°49' W 122°20'3 5.6
2017-Apr-16 08:30N 37°48' W 122°24'0 0.0
2017-Apr-16 08:00N 37°48' W 122°24'0 0.0
2017-Apr-16 07:30N 37°48' W 122°24'0 0.0
2017-Apr-16 07:00N 37°48' W 122°24'0 0.0
2017-Apr-16 06:30N 37°48' W 122°24'0 0.0
2017-Apr-16 06:00N 37°48' W 122°24'0 0.0
2017-Apr-16 05:30N 37°48' W 122°24'0 0.0
2017-Apr-16 05:00N 37°48' W 122°24'0 0.0
2017-Apr-16 04:30N 37°48' W 122°24'510.7
2017-Apr-16 04:00N 37°48' W 122°31'4 7.8
2017-Apr-16 03:29N 37°47' W 122°35'1019.7
2017-Apr-16 03:00N 37°48' W 122°23'3 6.2
2017-Apr-16 02:30N 37°48' W 122°20'3 6.7
2017-Apr-16 02:00N 37°48' W 122°24'0 0.0
2017-Apr-16 01:30N 37°48' W 122°24'0 0.0
2017-Apr-16 01:00N 37°48' W 122°24'0 0.0
2017-Apr-16 00:30N 37°48' W 122°24'0 0.0
2017-Apr-16 00:00N 37°48' W 122°24'0 0.0
2017-Apr-15 23:30N 37°48' W 122°24'1 1.7
2017-Apr-15 23:00N 37°49' W 122°24'1 1.7
2017-Apr-15 22:30N 37°48' W 122°24'0 0.0
2017-Apr-15 22:01N 37°48' W 122°24'0 0.0
2017-Apr-15 21:30N 37°48' W 122°24'0 0.5
2017-Apr-15 21:00N 37°48' W 122°24'0 0.5
2017-Apr-15 20:30N 37°48' W 122°23'0 0.8
2017-Apr-15 20:00N 37°48' W 122°24'1 2.6
2017-Apr-15 19:31N 37°49' W 122°25'0 0.2
2017-Apr-15 19:01N 37°49' W 122°25'4 7.4
2017-Apr-15 18:30N 37°47' W 122°21'2 4.9
2017-Apr-15 18:01N 37°48' W 122°24'0 0.0
2017-Apr-15 17:31N 37°48' W 122°24'3 5.3
2017-Apr-15 17:00N 37°49' W 122°27'510.6
2017-Apr-15 16:30N 37°49' W 122°20'1 1.0
2017-Apr-15 16:00N 37°49' W 122°20'1 1.2
2017-Apr-15 15:31N 37°49' W 122°20'3 5.5
2017-Apr-15 15:00N 37°48' W 122°24'0 0.0
2017-Apr-15 14:31N 37°48' W 122°24'0 0.0
2017-Apr-15 13:31N 37°48' W 122°24'  

Dump ship's entire track history